createdAt,value
2022-09-15T00:01:51.744Z,17.30
2022-09-15T00:04:27.060Z,17.30
2022-09-15T00:07:01.214Z,17.20
2022-09-15T00:09:35.557Z,17.20
2022-09-15T00:12:09.375Z,17.20
2022-09-15T00:14:42.841Z,17.20
2022-09-15T00:17:16.461Z,17.20
2022-09-15T00:19:51.792Z,17.20
2022-09-15T00:22:25.549Z,17.20
2022-09-15T00:24:58.921Z,17.20
2022-09-15T00:27:33.495Z,17.20
2022-09-15T00:30:09.556Z,17.20
2022-09-15T00:32:43.258Z,17.10
2022-09-15T00:35:18.270Z,17.10
2022-09-15T00:37:51.631Z,17.10
2022-09-15T00:40:25.094Z,17.10
2022-09-15T00:42:58.560Z,17.10
2022-09-15T00:45:32.304Z,17.00
2022-09-15T00:48:07.501Z,17.00
2022-09-15T00:50:46.439Z,17.00
2022-09-15T00:53:23.568Z,17.00
2022-09-15T00:55:59.173Z,16.90
2022-09-15T00:58:38.232Z,16.90
2022-09-15T01:01:14.091Z,16.90
2022-09-15T01:03:47.714Z,16.90
2022-09-15T01:06:33.656Z,16.90
2022-09-15T01:09:15.677Z,16.90
2022-09-15T01:11:49.393Z,16.80
2022-09-15T01:14:23.073Z,16.80
2022-09-15T01:17:15.124Z,16.80
2022-09-15T01:20:59.550Z,16.80
2022-09-15T01:24:16.121Z,16.80
2022-09-15T01:27:30.511Z,16.70
2022-09-15T01:30:21.106Z,16.70
2022-09-15T01:33:22.542Z,16.70
2022-09-15T01:36:06.803Z,16.70
2022-09-15T01:38:52.547Z,16.60
2022-09-15T01:41:32.072Z,16.60
2022-09-15T01:44:10.206Z,16.60
2022-09-15T01:46:49.237Z,16.50
2022-09-15T01:49:29.221Z,16.50
2022-09-15T01:52:03.931Z,16.50
2022-09-15T01:54:49.135Z,16.50
2022-09-15T01:57:24.302Z,16.50
2022-09-15T01:59:58.315Z,16.50
2022-09-15T02:02:39.187Z,16.50
2022-09-15T02:05:25.797Z,16.40
2022-09-15T02:08:08.988Z,16.40
2022-09-15T02:10:52.199Z,16.40
2022-09-15T02:13:39.333Z,16.40
2022-09-15T02:16:20.036Z,16.30
2022-09-15T02:19:13.068Z,16.40
2022-09-15T02:21:58.026Z,16.30
2022-09-15T02:24:39.744Z,16.30
2022-09-15T02:27:21.949Z,16.30
2022-09-15T02:30:05.982Z,16.30
2022-09-15T02:32:47.256Z,16.30
2022-09-15T02:35:23.297Z,16.30
2022-09-15T02:37:57.991Z,16.20
2022-09-15T02:40:32.563Z,16.20
2022-09-15T02:43:10.486Z,16.20
2022-09-15T02:45:44.550Z,16.20
2022-09-15T02:48:18.249Z,16.20
2022-09-15T02:51:00.648Z,16.20
2022-09-15T02:53:34.215Z,16.20
2022-09-15T02:56:08.322Z,16.20
2022-09-15T02:58:49.964Z,16.20
2022-09-15T03:01:32.292Z,16.20
2022-09-15T03:04:06.434Z,16.20
2022-09-15T03:06:41.214Z,16.20
2022-09-15T03:09:14.945Z,16.20
2022-09-15T03:11:48.278Z,16.20
2022-09-15T03:14:21.793Z,16.10
2022-09-15T03:16:55.209Z,16.10
2022-09-15T03:19:28.907Z,16.10
2022-09-15T03:22:03.645Z,16.10
2022-09-15T03:24:37.550Z,16.20
2022-09-15T03:27:10.998Z,16.20
2022-09-15T03:29:44.681Z,16.20
2022-09-15T03:32:18.180Z,16.20
2022-09-15T03:34:53.252Z,16.20
2022-09-15T03:37:31.969Z,16.20
2022-09-15T03:40:06.738Z,16.20
2022-09-15T03:42:40.325Z,16.20
2022-09-15T03:45:13.767Z,16.20
2022-09-15T03:47:47.222Z,16.20
2022-09-15T03:50:20.521Z,16.20
2022-09-15T03:52:58.715Z,16.20
2022-09-15T03:55:33.379Z,16.20
2022-09-15T03:58:06.775Z,16.20
2022-09-15T04:00:40.757Z,16.20
2022-09-15T04:03:15.060Z,16.30
2022-09-15T04:05:48.697Z,16.30
2022-09-15T04:08:23.653Z,16.10
2022-09-15T04:10:57.305Z,16.30
2022-09-15T04:13:31.030Z,16.30
2022-09-15T04:16:08.227Z,16.30
2022-09-15T04:18:42.315Z,16.30
2022-09-15T04:21:18.708Z,16.30
2022-09-15T04:23:54.655Z,16.40
2022-09-15T04:26:32.127Z,16.40
2022-09-15T04:29:12.208Z,16.40
2022-09-15T04:31:46.879Z,16.40
2022-09-15T04:34:20.548Z,16.40
2022-09-15T04:36:54.170Z,16.40
2022-09-15T04:39:28.911Z,16.40
2022-09-15T04:42:05.380Z,16.50
2022-09-15T04:44:38.881Z,16.50
2022-09-15T04:47:12.252Z,16.50
2022-09-15T04:49:45.630Z,16.50
2022-09-15T04:52:19.116Z,16.50
2022-09-15T04:54:54.425Z,16.50
2022-09-15T04:57:27.744Z,16.50
2022-09-15T05:00:01.143Z,16.50
2022-09-15T05:02:34.816Z,16.50
2022-09-15T05:05:09.209Z,16.50
2022-09-15T05:07:42.554Z,16.60
2022-09-15T05:10:17.919Z,16.60
2022-09-15T05:12:51.319Z,16.60
2022-09-15T05:15:25.126Z,16.60
2022-09-15T05:17:59.661Z,16.60
2022-09-15T05:20:33.124Z,16.60
2022-09-15T05:23:06.574Z,16.60
2022-09-15T05:25:41.978Z,16.60
2022-09-15T05:28:15.408Z,16.60
2022-09-15T05:30:48.869Z,16.70
2022-09-15T05:33:24.976Z,16.70
2022-09-15T05:36:01.333Z,16.70
2022-09-15T05:38:35.412Z,16.70
2022-09-15T05:41:13.183Z,16.70
2022-09-15T05:43:49.078Z,16.70
2022-09-15T05:46:22.852Z,16.70
2022-09-15T05:48:59.125Z,16.80
2022-09-15T05:51:34.706Z,16.80
2022-09-15T05:54:08.221Z,16.80
2022-09-15T05:56:42.897Z,16.80
2022-09-15T05:59:16.485Z,16.80
2022-09-15T06:01:50.290Z,16.90
2022-09-15T06:04:24.121Z,16.80
2022-09-15T06:06:57.444Z,16.90
2022-09-15T06:09:30.870Z,16.90
2022-09-15T06:12:06.444Z,17.00
2022-09-15T06:14:40.205Z,17.00
2022-09-15T06:17:14.306Z,17.00
2022-09-15T06:19:47.748Z,17.00
2022-09-15T06:22:31.647Z,17.10
2022-09-15T06:25:06.490Z,17.10
2022-09-15T06:27:42.564Z,17.10
2022-09-15T06:30:16.321Z,17.10
2022-09-15T06:32:50.328Z,17.10
2022-09-15T06:35:23.787Z,17.20
2022-09-15T06:37:57.063Z,17.20
2022-09-15T06:40:30.770Z,17.20
2022-09-15T06:43:07.082Z,17.20
2022-09-15T06:45:40.838Z,17.30
2022-09-15T06:48:24.563Z,17.30
2022-09-15T06:51:03.584Z,17.30
2022-09-15T06:53:39.071Z,17.30
2022-09-15T06:56:15.487Z,17.30
2022-09-15T06:58:50.522Z,17.30
2022-09-15T07:01:28.114Z,17.30
2022-09-15T07:04:05.833Z,17.30
2022-09-15T07:06:41.075Z,17.30
2022-09-15T07:09:14.957Z,17.40
2022-09-15T07:11:48.269Z,17.40
2022-09-15T07:14:23.045Z,17.40
2022-09-15T07:16:57.618Z,17.40
2022-09-15T07:19:31.100Z,17.40
2022-09-15T07:22:04.647Z,17.50
2022-09-15T07:24:38.417Z,17.50
2022-09-15T07:27:12.087Z,17.50
2022-09-15T07:29:47.439Z,17.50
2022-09-15T07:32:22.972Z,17.60
2022-09-15T07:34:58.525Z,17.60
2022-09-15T07:37:33.256Z,17.60
2022-09-15T07:40:08.349Z,17.70
2022-09-15T07:42:44.437Z,17.70
2022-09-15T07:45:19.597Z,17.70
2022-09-15T07:47:53.033Z,17.70
2022-09-15T07:50:27.434Z,17.80
2022-09-15T07:53:00.825Z,17.80
2022-09-15T07:55:34.755Z,17.90
2022-09-15T07:58:09.059Z,17.90
2022-09-15T08:00:45.381Z,18.00
2022-09-15T08:03:19.114Z,18.10
2022-09-15T08:05:57.771Z,17.90
2022-09-15T08:08:32.409Z,18.20
2022-09-15T08:11:09.323Z,18.20
2022-09-15T08:13:43.164Z,18.20
2022-09-15T08:16:21.183Z,18.30
2022-09-15T08:18:56.126Z,18.30
2022-09-15T08:21:29.978Z,18.40
2022-09-15T08:24:03.928Z,18.40
2022-09-15T08:26:38.679Z,18.50
2022-09-15T08:29:12.573Z,18.50
2022-09-15T08:31:48.757Z,18.60
2022-09-15T08:34:22.789Z,18.60
2022-09-15T08:36:56.712Z,18.70
2022-09-15T08:39:30.693Z,18.70
2022-09-15T08:42:05.215Z,18.70
2022-09-15T08:44:47.707Z,18.80
2022-09-15T08:47:28.982Z,18.80
2022-09-15T08:50:12.627Z,18.80
2022-09-15T08:52:52.193Z,18.90
2022-09-15T08:55:38.936Z,19.00
2022-09-15T08:58:19.111Z,19.00
2022-09-15T09:01:02.645Z,19.00
2022-09-15T09:04:08.024Z,19.00
2022-09-15T09:06:56.978Z,19.00
2022-09-15T09:09:43.492Z,19.10
2022-09-15T09:12:46.669Z,19.10
2022-09-15T09:15:39.371Z,19.20
2022-09-15T09:18:47.922Z,19.20
2022-09-15T09:21:28.263Z,19.30
2022-09-15T09:24:14.015Z,19.30
2022-09-15T09:26:54.413Z,19.30
2022-09-15T09:29:36.373Z,19.40
2022-09-15T09:32:21.628Z,19.40
2022-09-15T09:35:06.296Z,19.40
2022-09-15T09:37:40.097Z,19.50
2022-09-15T09:40:16.149Z,19.50
2022-09-15T09:42:50.117Z,19.60
2022-09-15T09:45:24.286Z,19.70
2022-09-15T09:48:10.584Z,19.70
2022-09-15T09:50:46.057Z,19.70
2022-09-15T09:53:28.684Z,19.80
2022-09-15T09:56:19.509Z,19.80
2022-09-15T09:58:53.872Z,19.90
2022-09-15T10:01:28.025Z,19.90
2022-09-15T10:04:19.448Z,19.90
2022-09-15T10:06:57.873Z,20.00
2022-09-15T10:09:33.462Z,20.00
2022-09-15T10:12:09.809Z,20.00
2022-09-15T10:14:45.513Z,20.10
2022-09-15T10:17:22.958Z,19.90
2022-09-15T10:20:00.787Z,20.10
2022-09-15T10:22:42.499Z,20.10
2022-09-15T10:25:57.508Z,20.10
2022-09-15T10:28:29.896Z,20.20
2022-09-15T10:31:07.819Z,20.20
2022-09-15T10:33:43.323Z,20.30
2022-09-15T10:36:21.624Z,20.30
2022-09-15T10:39:11.979Z,20.30
2022-09-15T10:41:55.291Z,20.50
2022-09-15T10:44:43.585Z,20.30
2022-09-15T10:47:32.486Z,20.30
2022-09-15T10:50:17.579Z,20.30
2022-09-15T10:53:12.856Z,20.20
2022-09-15T10:56:00.875Z,20.20
2022-09-15T10:58:56.819Z,20.20
2022-09-15T11:02:04.454Z,20.20
2022-09-15T11:05:05.075Z,20.20
2022-09-15T11:07:49.713Z,20.10
2022-09-15T11:10:33.918Z,20.10
2022-09-15T11:13:26.716Z,20.00
2022-09-15T11:16:13.189Z,19.90
2022-09-15T11:19:21.553Z,19.90
2022-09-15T11:22:01.849Z,19.80
2022-09-15T11:24:46.828Z,19.80
2022-09-15T11:27:27.159Z,19.70
2022-09-15T11:30:08.018Z,19.70
2022-09-15T11:32:54.291Z,19.70
2022-09-15T11:35:45.781Z,19.60
2022-09-15T11:38:42.914Z,19.60
2022-09-15T11:41:23.609Z,19.60
2022-09-15T11:44:16.979Z,19.60
2022-09-15T11:47:05.505Z,19.50
2022-09-15T11:49:47.527Z,19.50
2022-09-15T11:52:51.444Z,19.50
2022-09-15T11:55:36.800Z,19.50
2022-09-15T11:58:25.566Z,19.50
2022-09-15T12:01:09.782Z,19.50
2022-09-15T12:03:55.355Z,19.50
2022-09-15T12:06:38.502Z,19.60
2022-09-15T12:09:18.911Z,19.70
2022-09-15T12:12:01.882Z,19.70
2022-09-15T12:14:39.916Z,19.80
2022-09-15T12:17:26.401Z,19.80
2022-09-15T12:20:07.395Z,19.90
2022-09-15T12:22:53.670Z,20.00
2022-09-15T12:25:37.574Z,20.00
2022-09-15T12:28:54.314Z,20.10
2022-09-15T12:31:38.119Z,20.10
2022-09-15T12:34:38.417Z,20.20
2022-09-15T12:37:16.343Z,20.20
2022-09-15T12:39:50.262Z,20.20
2022-09-15T12:42:32.399Z,20.20
2022-09-15T12:45:21.229Z,20.10
2022-09-15T12:48:03.760Z,20.10
2022-09-15T12:50:40.616Z,20.10
2022-09-15T12:53:23.435Z,20.10
2022-09-15T12:56:00.644Z,20.10
2022-09-15T12:58:38.293Z,20.10
2022-09-15T13:01:55.364Z,20.10
2022-09-15T13:04:59.087Z,20.10
2022-09-15T13:07:53.999Z,20.20
2022-09-15T13:10:43.802Z,20.20
2022-09-15T13:13:32.637Z,20.20
2022-09-15T13:16:16.704Z,20.20
2022-09-15T13:19:08.898Z,20.20
2022-09-15T13:21:49.554Z,20.20
2022-09-15T13:24:38.978Z,20.30
2022-09-15T13:27:19.683Z,20.20
2022-09-15T13:30:04.588Z,20.20
2022-09-15T13:33:06.936Z,20.20
2022-09-15T13:36:11.746Z,20.30
2022-09-15T13:39:17.704Z,20.40
2022-09-15T13:42:32.873Z,20.40
2022-09-15T13:45:37.410Z,20.50
2022-09-15T13:48:43.695Z,20.50
2022-09-15T13:51:28.291Z,20.50
2022-09-15T13:54:07.943Z,20.50
2022-09-15T13:56:46.478Z,20.50
2022-09-15T13:59:30.255Z,20.50
2022-09-15T14:02:12.120Z,20.50
2022-09-15T14:04:51.933Z,20.50
2022-09-15T14:07:26.978Z,20.50
2022-09-15T14:10:00.605Z,20.50
2022-09-15T14:12:38.288Z,20.50
2022-09-15T14:15:25.744Z,20.50
2022-09-15T14:17:59.561Z,20.50
2022-09-15T14:20:34.469Z,20.50
2022-09-15T14:23:17.732Z,20.60
2022-09-15T14:25:51.161Z,20.60
2022-09-15T14:28:31.630Z,20.60
2022-09-15T14:31:07.266Z,20.60
2022-09-15T14:33:42.369Z,20.60
2022-09-15T14:36:23.648Z,20.60
2022-09-15T14:39:22.763Z,20.60
2022-09-15T14:41:56.319Z,20.60
2022-09-15T14:47:33.709Z,20.60
2022-09-15T14:50:10.005Z,20.60
2022-09-15T14:52:46.295Z,20.60
2022-09-15T14:55:26.139Z,20.60
2022-09-15T14:58:06.386Z,20.60
2022-09-15T15:00:52.893Z,20.60
2022-09-15T15:03:38.052Z,20.60
2022-09-15T15:06:28.859Z,20.60
2022-09-15T15:09:11.052Z,20.60
2022-09-15T15:11:45.209Z,20.60
2022-09-15T15:14:19.835Z,20.60
2022-09-15T15:16:59.423Z,20.60
2022-09-15T15:19:38.057Z,20.60
2022-09-15T15:22:36.942Z,20.60
2022-09-15T15:25:34.716Z,20.60
2022-09-15T15:28:08.610Z,20.60
2022-09-15T15:30:48.520Z,20.70
2022-09-15T15:33:28.200Z,20.70
2022-09-15T15:36:06.679Z,20.70
2022-09-15T15:38:47.396Z,20.70
2022-09-15T15:41:24.847Z,20.80
2022-09-15T15:44:08.867Z,20.80
2022-09-15T15:46:52.778Z,20.80
2022-09-15T15:49:29.351Z,20.80
2022-09-15T15:52:04.253Z,20.80
2022-09-15T15:54:37.550Z,20.80
2022-09-15T15:57:25.215Z,20.80
2022-09-15T16:00:00.705Z,20.80
2022-09-15T16:02:34.040Z,20.80
2022-09-15T16:05:07.942Z,20.80
2022-09-15T16:07:44.140Z,20.80
2022-09-15T16:10:21.408Z,20.70
2022-09-15T16:12:54.914Z,20.70
2022-09-15T16:15:28.755Z,20.70
2022-09-15T16:18:02.308Z,20.60
2022-09-15T16:20:35.816Z,20.60
2022-09-15T16:23:16.654Z,20.60
2022-09-15T16:25:55.088Z,20.50
2022-09-15T16:28:29.830Z,20.50
2022-09-15T16:31:04.515Z,20.50
2022-09-15T16:33:38.318Z,20.40
2022-09-15T16:36:15.553Z,20.40
2022-09-15T16:38:51.005Z,20.40
2022-09-15T16:41:27.056Z,20.40
2022-09-15T16:44:00.538Z,20.40
2022-09-15T16:46:33.998Z,20.40
2022-09-15T16:49:07.509Z,20.30
2022-09-15T16:51:42.405Z,20.30
2022-09-15T16:54:20.285Z,20.30
2022-09-15T16:56:53.826Z,20.30
2022-09-15T16:59:27.105Z,20.20
2022-09-15T17:02:00.758Z,20.20
2022-09-15T17:04:34.190Z,20.10
2022-09-15T17:07:08.781Z,20.10
2022-09-15T17:09:43.628Z,20.10
2022-09-15T17:12:16.957Z,20.10
2022-09-15T17:14:50.304Z,20.10
2022-09-15T17:17:27.155Z,20.00
2022-09-15T17:20:00.602Z,20.00
2022-09-15T17:22:34.178Z,20.00
2022-09-15T17:25:25.499Z,19.90
2022-09-15T17:28:02.807Z,19.80
2022-09-15T17:30:37.033Z,19.80
2022-09-15T17:33:15.743Z,19.80
2022-09-15T17:35:49.639Z,19.80
2022-09-15T17:38:24.099Z,19.70
2022-09-15T17:40:59.814Z,19.70
2022-09-15T17:43:33.208Z,19.70
2022-09-15T17:46:07.836Z,19.70
2022-09-15T17:48:41.875Z,19.70
2022-09-15T17:51:18.458Z,19.60
2022-09-15T17:53:55.029Z,19.60
2022-09-15T17:56:29.989Z,19.60
2022-09-15T17:59:03.897Z,19.50
2022-09-15T18:01:37.546Z,19.50
2022-09-15T18:04:12.559Z,19.50
2022-09-15T18:06:46.939Z,19.40
2022-09-15T18:09:23.201Z,19.40
2022-09-15T18:11:57.872Z,19.40
2022-09-15T18:14:31.308Z,19.40
2022-09-15T18:17:04.887Z,19.40
2022-09-15T18:19:38.168Z,19.30
2022-09-15T18:22:14.463Z,19.30
2022-09-15T18:24:47.859Z,19.30
2022-09-15T18:27:22.993Z,19.30
2022-09-15T18:29:56.367Z,19.20
2022-09-15T18:32:29.838Z,19.20
2022-09-15T18:35:03.315Z,19.20
2022-09-15T18:37:37.781Z,19.10
2022-09-15T18:40:14.732Z,19.20
2022-09-15T18:42:49.577Z,19.10
2022-09-15T18:45:23.362Z,18.90
2022-09-15T18:47:57.041Z,19.10
2022-09-15T18:50:30.580Z,19.10
2022-09-15T18:53:04.178Z,19.10
2022-09-15T18:55:41.707Z,19.10
2022-09-15T18:58:17.803Z,19.00
2022-09-15T19:00:52.017Z,19.00
2022-09-15T19:03:25.409Z,19.00
2022-09-15T19:06:04.446Z,19.00
2022-09-15T19:08:38.592Z,19.00
2022-09-15T19:11:15.390Z,19.00
2022-09-15T19:13:50.773Z,19.00
2022-09-15T19:16:34.661Z,19.00
2022-09-15T19:19:13.968Z,19.00
2022-09-15T19:21:47.228Z,19.00
2022-09-15T19:24:20.698Z,18.90
2022-09-15T19:26:54.272Z,18.90
2022-09-15T19:29:34.541Z,18.90
2022-09-15T19:32:12.778Z,18.90
2022-09-15T19:34:48.370Z,18.90
2022-09-15T19:37:23.660Z,18.90
2022-09-15T19:39:57.167Z,18.90
2022-09-15T19:42:30.823Z,18.90
2022-09-15T19:45:06.706Z,18.80
2022-09-15T19:47:41.454Z,18.80
2022-09-15T19:50:14.931Z,18.80
2022-09-15T19:52:48.956Z,18.80
2022-09-15T19:55:23.192Z,18.70
2022-09-15T19:57:56.579Z,18.70
2022-09-15T20:00:31.749Z,18.60
2022-09-15T20:03:05.499Z,18.60
2022-09-15T20:05:39.121Z,18.70
2022-09-15T20:08:12.462Z,18.50
2022-09-15T20:10:50.240Z,18.50
2022-09-15T20:13:23.794Z,18.40
2022-09-15T20:16:02.010Z,18.40
2022-09-15T20:18:38.480Z,18.30
2022-09-15T20:21:22.169Z,18.30
2022-09-15T20:24:13.182Z,18.30
2022-09-15T20:26:50.279Z,18.20
2022-09-15T20:29:23.861Z,18.20
2022-09-15T20:31:58.838Z,18.20
2022-09-15T20:34:32.304Z,18.20
2022-09-15T20:37:05.930Z,18.20
2022-09-15T20:39:39.498Z,18.10
2022-09-15T20:42:12.858Z,18.10
2022-09-15T20:44:46.324Z,18.10
2022-09-15T20:47:21.058Z,18.10
2022-09-15T20:49:54.541Z,18.10
2022-09-15T20:52:35.926Z,18.00
2022-09-15T20:55:11.538Z,18.00
2022-09-15T20:57:47.017Z,18.00
2022-09-15T21:00:20.876Z,18.00
2022-09-15T21:02:55.654Z,18.00
2022-09-15T21:05:29.189Z,18.00
2022-09-15T21:08:03.106Z,18.00
2022-09-15T21:10:37.765Z,18.00
2022-09-15T21:13:11.172Z,18.00
2022-09-15T21:15:44.460Z,18.00
2022-09-15T21:18:19.947Z,18.00
2022-09-15T21:20:58.059Z,18.00
2022-09-15T21:23:35.541Z,17.90
2022-09-15T21:26:11.516Z,17.90
2022-09-15T21:28:46.064Z,17.90
2022-09-15T21:31:27.599Z,17.90
2022-09-15T21:34:03.636Z,17.70
2022-09-15T21:36:37.230Z,17.70
2022-09-15T21:39:11.087Z,17.80
2022-09-15T21:41:44.608Z,17.80
2022-09-15T21:44:21.216Z,17.80
2022-09-15T21:46:54.798Z,17.70
2022-09-15T21:49:29.465Z,17.70
2022-09-15T21:52:03.013Z,17.70
2022-09-15T21:54:36.306Z,17.70
2022-09-15T21:57:10.160Z,17.70
2022-09-15T21:59:43.507Z,17.60
2022-09-15T22:02:17.656Z,17.60
2022-09-15T22:04:52.696Z,17.60
2022-09-15T22:07:26.144Z,17.60
2022-09-15T22:09:59.765Z,17.60
2022-09-15T22:12:33.141Z,17.60
2022-09-15T22:15:08.223Z,17.60
2022-09-15T22:17:42.330Z,17.60
2022-09-15T22:20:17.530Z,17.60
2022-09-15T22:22:53.797Z,17.50
2022-09-15T22:25:27.284Z,17.50
2022-09-15T22:28:00.934Z,17.50
2022-09-15T22:30:35.274Z,17.50
2022-09-15T22:33:08.744Z,17.50
2022-09-15T22:35:48.497Z,17.50
2022-09-15T22:38:22.251Z,17.50
2022-09-15T22:40:56.340Z,17.50
2022-09-15T22:43:29.710Z,17.50
2022-09-15T22:46:03.437Z,17.50
2022-09-15T22:48:43.159Z,17.40
2022-09-15T22:51:18.466Z,17.40
2022-09-15T22:53:56.668Z,17.40
2022-09-15T22:56:30.635Z,17.40
2022-09-15T22:59:04.005Z,17.40
2022-09-15T23:01:37.705Z,17.40
2022-09-15T23:04:11.420Z,17.30
2022-09-15T23:06:46.395Z,17.30
2022-09-15T23:09:19.798Z,17.30
2022-09-15T23:11:53.488Z,17.20
2022-09-15T23:14:27.299Z,17.20
2022-09-15T23:17:00.620Z,17.20
2022-09-15T23:19:34.076Z,17.10
2022-09-15T23:22:09.138Z,17.20
2022-09-15T23:24:42.720Z,17.10
2022-09-15T23:27:16.117Z,17.10
2022-09-15T23:29:49.565Z,17.10
2022-09-15T23:32:24.180Z,17.10
2022-09-15T23:34:57.696Z,17.10
2022-09-15T23:37:32.398Z,17.00
2022-09-15T23:40:06.811Z,17.00
2022-09-15T23:42:40.304Z,17.00
2022-09-15T23:45:13.773Z,17.00
2022-09-15T23:47:47.227Z,17.00
2022-09-15T23:50:20.941Z,17.00
2022-09-15T23:52:55.695Z,16.90
2022-09-15T23:55:41.187Z,16.90
2022-09-15T23:58:15.086Z,17.00
